Time;durP1;ratioP1;P1;durP2;ratioP2;P2;SDS_P1;SDS_P2;PMS_P1;PMS_P2;Temp;Humidity;BMP_temperature;BMP_pressure;BME280_temperature;BME280_humidity;BME280_pressure;Samples;Min_cycle;Max_cycle;Signal;HPM_P1;HPM_P2
2023/07/23 00:00:32;;;;;;;10.70;5.60;;;13.60;99.90;;;;;;5047631;28;20049;-67
2023/07/23 00:02:57;;;;;;;11.25;5.57;;;13.50;99.90;;;;;;5067383;28;20495;-67
2023/07/23 00:05:24;;;;;;;12.23;5.97;;;13.60;99.90;;;;;;5062520;28;20128;-67
2023/07/23 00:07:58;;;;;;;15.70;6.45;;;13.60;99.90;;;;;;5050337;28;20357;-67
2023/07/23 00:10:25;;;;;;;10.27;5.65;;;13.60;99.90;;;;;;5047678;28;20041;-67
2023/07/23 00:12:51;;;;;;;12.73;5.70;;;13.50;99.90;;;;;;5042493;28;20044;-66
2023/07/23 00:15:17;;;;;;;12.23;6.63;;;13.50;99.90;;;;;;5046240;28;20475;-66
2023/07/23 00:17:43;;;;;;;11.13;5.55;;;13.40;99.90;;;;;;5054276;28;20037;-66
2023/07/23 00:20:10;;;;;;;14.48;6.90;;;13.50;99.90;;;;;;5027484;28;20052;-66
2023/07/23 00:22:37;;;;;;;17.25;6.60;;;13.50;99.90;;;;;;5046787;28;20116;-67
2023/07/23 00:25:03;;;;;;;12.30;6.22;;;13.40;99.90;;;;;;5046677;28;20055;-67
2023/07/23 00:27:28;;;;;;;10.50;6.22;;;13.60;99.90;;;;;;5034566;28;20045;-67
2023/07/23 00:29:54;;;;;;;15.68;5.97;;;13.50;99.90;;;;;;5054558;28;20417;-67
2023/07/23 00:32:19;;;;;;;13.73;6.32;;;13.50;99.90;;;;;;5066813;28;20041;-68
2023/07/23 00:34:45;;;;;;;15.73;6.55;;;13.50;99.90;;;;;;5066790;28;20036;-67
2023/07/23 00:37:10;;;;;;;13.65;6.57;;;13.50;99.90;;;;;;5044194;28;20488;-66
2023/07/23 00:39:38;;;;;;;14.98;7.07;;;13.50;99.90;;;;;;5046118;28;20329;-65
2023/07/23 00:42:04;;;;;;;17.10;7.22;;;13.60;99.90;;;;;;5058075;28;20041;-67
2023/07/23 00:44:30;;;;;;;14.55;6.68;;;13.60;99.90;;;;;;5058923;28;20141;-67
2023/07/23 00:46:57;;;;;;;16.00;7.43;;;13.70;99.90;;;;;;5044324;28;20135;-67
2023/07/23 00:49:23;;;;;;;15.98;7.93;;;13.60;99.90;;;;;;5060615;28;20140;-68
2023/07/23 00:51:49;;;;;;;15.13;6.93;;;13.50;99.90;;;;;;5065952;28;20127;-66
2023/07/23 00:54:15;;;;;;;13.00;6.68;;;13.60;99.90;;;;;;5045259;28;20095;-67
2023/07/23 00:56:43;;;;;;;15.52;7.25;;;13.70;99.90;;;;;;5056728;28;20031;-67
2023/07/23 00:59:09;;;;;;;16.63;7.15;;;13.60;99.90;;;;;;5053259;28;20331;-68
2023/07/23 01:01:35;;;;;;;16.23;7.40;;;13.70;99.90;;;;;;5038731;28;20049;-67
2023/07/23 01:04:00;;;;;;;14.80;7.60;;;13.60;99.90;;;;;;5054121;28;20058;-68
2023/07/23 01:06:27;;;;;;;18.48;7.53;;;13.50;99.90;;;;;;5020575;28;20156;-68
2023/07/23 01:08:56;;;;;;;16.65;6.93;;;13.70;99.90;;;;;;5039266;28;20045;-68
2023/07/23 01:11:26;;;;;;;19.88;7.90;;;13.70;99.90;;;;;;5044436;28;20047;-67
2023/07/23 01:13:52;;;;;;;14.80;6.72;;;13.70;99.90;;;;;;5055706;28;20516;-67
2023/07/23 01:16:18;;;;;;;14.65;7.22;;;13.60;99.90;;;;;;5051415;28;20159;-68
2023/07/23 01:18:45;;;;;;;12.55;6.97;;;13.60;99.90;;;;;;5052041;28;20372;-69
2023/07/23 01:21:11;;;;;;;14.32;7.22;;;13.60;99.90;;;;;;5058980;28;20051;-68
2023/07/23 01:23:36;;;;;;;14.80;7.30;;;13.50;99.90;;;;;;5044761;28;20040;-68
2023/07/23 01:26:07;;;;;;;17.20;7.60;;;13.50;99.90;;;;;;5037350;28;20079;-68
2023/07/23 01:28:33;;;;;;;15.57;7.18;;;13.50;99.90;;;;;;5034935;28;20453;-69
2023/07/23 01:30:59;;;;;;;17.75;7.40;;;13.50;99.90;;;;;;5053908;28;20522;-68
2023/07/23 01:33:25;;;;;;;17.23;7.80;;;13.60;99.90;;;;;;5062730;28;20064;-69
2023/07/23 01:35:53;;;;;;;18.42;8.02;;;13.60;99.90;;;;;;5044202;28;20033;-68
2023/07/23 01:38:19;;;;;;;15.10;6.97;;;13.50;99.90;;;;;;5031012;28;20159;-69
2023/07/23 01:40:45;;;;;;;12.27;6.78;;;13.60;99.90;;;;;;5044043;28;20099;-69
2023/07/23 01:43:12;;;;;;;15.40;7.47;;;13.70;99.90;;;;;;5045095;28;20074;-69
2023/07/23 01:45:41;;;;;;;15.15;6.95;;;13.60;99.90;;;;;;5043329;28;20075;-69
2023/07/23 01:48:07;;;;;;;20.10;7.57;;;13.50;99.90;;;;;;5042379;28;20740;-69
2023/07/23 01:50:33;;;;;;;18.08;7.70;;;13.70;99.90;;;;;;5043093;28;20159;-69
2023/07/23 01:52:58;;;;;;;15.55;7.47;;;13.70;99.90;;;;;;5045294;28;20044;-69
2023/07/23 01:55:24;;;;;;;15.25;7.00;;;13.60;99.90;;;;;;5065063;28;20093;-68
2023/07/23 01:57:49;;;;;;;16.08;7.63;;;13.70;99.90;;;;;;5044299;28;20036;-70
2023/07/23 02:00:15;;;;;;;14.27;6.82;;;13.70;99.90;;;;;;5065344;28;20036;-69
2023/07/23 02:02:41;;;;;;;15.00;6.50;;;13.60;99.90;;;;;;5061729;28;20441;-70
2023/07/23 02:05:06;;;;;;;19.00;7.30;;;13.80;99.90;;;;;;5040048;28;20044;-69
2023/07/23 02:07:32;;;;;;;15.05;6.40;;;13.60;99.90;;;;;;5045752;28;20044;-70
2023/07/23 02:09:58;;;;;;;13.90;6.57;;;13.60;99.90;;;;;;5048564;28;20063;-70
2023/07/23 02:12:23;;;;;;;16.13;6.68;;;13.80;99.90;;;;;;5042588;28;20132;-70
2023/07/23 02:14:49;;;;;;;13.80;6.60;;;13.80;99.90;;;;;;5046691;28;20032;-70
2023/07/23 02:17:14;;;;;;;19.10;7.35;;;13.60;99.90;;;;;;5042456;28;20039;-71
2023/07/23 02:19:40;;;;;;;16.75;7.03;;;13.80;99.90;;;;;;5041990;28;20051;-70
2023/07/23 02:22:05;;;;;;;15.30;7.07;;;13.50;99.90;;;;;;5061472;28;20098;-70
2023/07/23 02:24:31;;;;;;;15.32;7.05;;;13.50;99.90;;;;;;5046124;28;20133;-70
2023/07/23 02:26:56;;;;;;;15.93;6.85;;;13.50;99.90;;;;;;5059525;28;20115;-71
2023/07/23 02:29:22;;;;;;;13.77;7.07;;;13.90;99.90;;;;;;5040117;28;20487;-72
2023/07/23 02:31:48;;;;;;;15.05;7.10;;;13.80;99.90;;;;;;5038079;28;20037;-72
2023/07/23 02:34:14;;;;;;;17.67;7.30;;;13.60;99.90;;;;;;5036105;28;20035;-73
2023/07/23 02:36:40;;;;;;;17.95;7.75;;;13.60;99.90;;;;;;5045407;28;20044;-73
2023/07/23 02:39:05;;;;;;;17.83;7.25;;;13.60;99.90;;;;;;5063014;28;20076;-71
2023/07/23 02:41:31;;;;;;;17.40;7.05;;;13.50;99.90;;;;;;5056359;28;20116;-71
2023/07/23 02:43:57;;;;;;;18.58;7.57;;;13.80;99.90;;;;;;5043587;28;20122;-72
2023/07/23 02:46:23;;;;;;;20.20;8.23;;;13.40;99.90;;;;;;5061148;28;20040;-71
2023/07/23 02:48:48;;;;;;;17.30;8.25;;;13.60;99.90;;;;;;5059325;28;20044;-72
2023/07/23 02:51:14;;;;;;;15.55;7.63;;;13.80;99.90;;;;;;5035459;28;20029;-72
2023/07/23 02:53:39;;;;;;;19.10;8.80;;;13.50;99.90;;;;;;5047241;28;20045;-71
2023/07/23 02:56:05;;;;;;;17.73;8.18;;;13.60;99.90;;;;;;5050447;28;20051;-72
2023/07/23 02:58:31;;;;;;;19.10;8.55;;;13.80;99.90;;;;;;5065014;28;20025;-72
2023/07/23 03:00:56;;;;;;;18.75;8.45;;;13.50;99.90;;;;;;5062573;28;20044;-72
2023/07/23 03:03:22;;;;;;;23.50;8.77;;;13.70;99.90;;;;;;5065954;28;20112;-71
2023/07/23 03:05:48;;;;;;;21.10;8.45;;;13.90;99.90;;;;;;5066773;28;20059;-72
2023/07/23 03:08:13;;;;;;;21.25;9.10;;;13.40;99.90;;;;;;5062946;28;20048;-71
2023/07/23 03:10:42;;;;;;;20.50;8.25;;;13.60;99.90;;;;;;5039234;28;20258;-72
2023/07/23 03:13:09;;;;;;;18.05;8.82;;;13.60;99.90;;;;;;5043591;28;20539;-71
2023/07/23 03:15:34;;;;;;;19.60;9.23;;;13.50;99.90;;;;;;5049510;28;20124;-71
2023/07/23 03:18:01;;;;;;;20.70;9.30;;;13.70;99.90;;;;;;5059138;28;20223;-72
2023/07/23 03:20:27;;;;;;;24.17;9.05;;;13.40;99.90;;;;;;5063550;28;20150;-73
2023/07/23 03:22:52;;;;;;;23.05;8.77;;;13.80;99.90;;;;;;5042078;28;20124;-73
2023/07/23 03:25:18;;;;;;;21.60;9.05;;;13.30;99.90;;;;;;5045733;28;20041;-70
2023/07/23 03:27:44;;;;;;;21.35;8.77;;;13.70;99.90;;;;;;5029967;28;20036;-71
2023/07/23 03:30:10;;;;;;;18.23;8.43;;;13.30;99.90;;;;;;5011050;28;20422;-71
2023/07/23 03:32:36;;;;;;;18.98;8.55;;;13.40;99.90;;;;;;5049099;28;20406;-70
2023/07/23 03:35:01;;;;;;;22.27;9.15;;;13.50;99.90;;;;;;5029794;28;20052;-72
2023/07/23 03:37:27;;;;;;;17.58;8.55;;;13.70;99.90;;;;;;5060261;28;20033;-72
2023/07/23 03:39:53;;;;;;;20.45;8.80;;;13.70;99.90;;;;;;5047692;28;20044;-70
2023/07/23 03:42:19;;;;;;;20.85;8.93;;;13.60;99.90;;;;;;5064532;28;20168;-72
2023/07/23 03:44:44;;;;;;;20.10;9.00;;;13.60;99.90;;;;;;5049228;28;20464;-72
2023/07/23 03:47:12;;;;;;;19.35;9.05;;;13.50;99.90;;;;;;5038887;28;20687;-70
2023/07/23 03:49:38;;;;;;;19.98;8.30;;;13.60;99.90;;;;;;5045081;28;20044;-71
2023/07/23 03:52:04;;;;;;;18.23;8.00;;;13.40;99.90;;;;;;5044259;28;20056;-72
2023/07/23 03:54:30;;;;;;;15.43;8.30;;;13.40;99.90;;;;;;5063579;28;20068;-73
2023/07/23 03:56:56;;;;;;;17.38;8.45;;;13.40;99.90;;;;;;5047647;28;20450;-72
2023/07/23 03:59:22;;;;;;;18.50;8.52;;;13.40;99.90;;;;;;5030917;28;20040;-74
2023/07/23 04:01:47;;;;;;;23.33;9.95;;;13.60;99.90;;;;;;5047566;28;20202;-72
2023/07/23 04:04:13;;;;;;;20.17;9.00;;;13.40;99.90;;;;;;5040974;28;20036;-73
2023/07/23 04:06:39;;;;;;;16.60;8.68;;;13.60;99.90;;;;;;5042802;28;21010;-73
2023/07/23 04:09:04;;;;;;;20.42;9.43;;;13.60;99.90;;;;;;5032963;28;20044;-71
2023/07/23 04:11:30;;;;;;;19.27;9.27;;;13.50;99.90;;;;;;5061834;28;20055;-73
2023/07/23 04:13:55;;;;;;;19.20;9.27;;;13.60;99.90;;;;;;5050215;28;20112;-73
2023/07/23 04:16:21;;;;;;;19.85;9.52;;;13.50;99.90;;;;;;5043413;28;20041;-71
2023/07/23 04:18:51;;;;;;;20.02;9.15;;;13.60;99.90;;;;;;5037491;28;20127;-72
2023/07/23 04:21:18;;;;;;;;;;;13.50;99.90;;;;;;5063109;28;20032;-72
2023/07/23 04:23:48;;;;;;;21.27;10.25;;;13.80;99.90;;;;;;5053404;28;19938;-76
2023/07/23 04:26:17;;;;;;;21.20;9.43;;;13.60;99.90;;;;;;5044913;28;20040;-72
2023/07/23 04:28:44;;;;;;;19.90;9.48;;;13.70;99.90;;;;;;5061232;28;20045;-73
2023/07/23 04:31:10;;;;;;;17.60;8.75;;;13.50;99.90;;;;;;5042484;28;20550;-72
2023/07/23 04:33:36;;;;;;;18.33;9.02;;;13.60;99.90;;;;;;5048369;28;20064;-73
2023/07/23 04:36:03;;;;;;;20.40;9.15;;;13.80;99.90;;;;;;5046315;28;20126;-73
2023/07/23 04:38:29;;;;;;;21.92;10.15;;;13.80;99.90;;;;;;5059666;28;20033;-72
2023/07/23 04:40:54;;;;;;;22.73;8.93;;;13.50;99.90;;;;;;5041538;28;20048;-73
2023/07/23 04:43:20;;;;;;;20.48;9.77;;;14.00;99.90;;;;;;5045451;28;20060;-74
2023/07/23 04:45:45;;;;;;;19.25;9.80;;;13.80;99.90;;;;;;5041544;28;20072;-71
2023/07/23 04:48:12;;;;;;;17.75;8.93;;;13.90;99.90;;;;;;5044221;28;20101;-72
2023/07/23 04:50:38;;;;;;;24.75;10.00;;;13.60;99.90;;;;;;5048246;28;20136;-72
2023/07/23 04:53:03;;;;;;;21.70;10.15;;;13.80;99.90;;;;;;5060515;28;20553;-73
2023/07/23 04:55:29;;;;;;;19.67;11.02;;;13.60;99.90;;;;;;5040904;28;20033;-72
2023/07/23 04:57:55;;;;;;;23.50;11.30;;;13.80;99.90;;;;;;5055813;28;20480;-70
2023/07/23 05:00:22;;;;;;;21.15;9.70;;;13.60;99.90;;;;;;5037874;28;20048;-73
2023/07/23 05:02:47;;;;;;;22.10;10.70;;;13.80;99.90;;;;;;5024918;28;20082;-73
2023/07/23 05:05:13;;;;;;;22.27;10.27;;;13.60;99.90;;;;;;5058220;28;20048;-73
2023/07/23 05:07:39;;;;;;;21.42;10.68;;;13.80;99.90;;;;;;5054519;28;20125;-71
2023/07/23 05:10:05;;;;;;;22.40;11.07;;;13.60;99.90;;;;;;5042476;28;20132;-71
2023/07/23 05:12:30;;;;;;;22.45;11.18;;;13.60;99.90;;;;;;5051331;28;20504;-71
2023/07/23 05:15:13;;;;;;;29.73;11.57;;;13.60;99.90;;;;;;5021391;28;20036;-71
2023/07/23 05:17:39;;;;;;;22.33;12.13;;;14.00;99.90;;;;;;5036310;28;20329;-71
2023/07/23 05:20:07;;;;;;;23.17;11.32;;;14.00;99.90;;;;;;5054519;28;20044;-71
2023/07/23 05:22:33;;;;;;;23.48;11.18;;;13.80;99.90;;;;;;5039799;28;20032;-73
2023/07/23 05:24:59;;;;;;;17.25;9.73;;;13.60;99.90;;;;;;5034276;28;20074;-72
2023/07/23 05:27:26;;;;;;;21.40;11.43;;;13.80;99.90;;;;;;5054942;28;20530;-72
2023/07/23 05:29:52;;;;;;;20.48;10.40;;;14.00;99.90;;;;;;5052187;28;20557;-73
2023/07/23 05:32:17;;;;;;;26.85;11.90;;;13.70;99.90;;;;;;5037185;28;20040;-71
2023/07/23 05:34:43;;;;;;;23.75;10.75;;;14.10;99.90;;;;;;5038957;28;20064;-72
2023/07/23 05:37:08;;;;;;;21.30;11.35;;;14.10;99.90;;;;;;5045075;28;20052;-73
2023/07/23 05:39:34;;;;;;;20.02;10.68;;;13.70;99.90;;;;;;5063837;28;20113;-73
2023/07/23 05:42:00;;;;;;;23.58;11.90;;;14.00;99.90;;;;;;5021374;28;20153;-73
2023/07/23 05:44:25;;;;;;;21.00;11.82;;;14.10;99.90;;;;;;5047749;28;20181;-71
2023/07/23 05:46:51;;;;;;;24.95;11.68;;;13.80;99.90;;;;;;5063343;28;20402;-72
2023/07/23 05:49:16;;;;;;;23.85;11.63;;;13.90;99.90;;;;;;5019963;28;20036;-72
2023/07/23 05:51:42;;;;;;;22.60;11.20;;;14.20;99.90;;;;;;5044512;28;20127;-72
2023/07/23 05:54:07;;;;;;;29.23;11.32;;;14.30;99.90;;;;;;5045678;28;20086;-73
2023/07/23 05:56:33;;;;;;;22.17;12.05;;;14.00;99.90;;;;;;5040074;28;20807;-70
2023/07/23 05:58:59;;;;;;;21.52;11.35;;;14.10;99.90;;;;;;5056591;28;21065;-72
2023/07/23 06:01:25;;;;;;;22.77;12.07;;;14.10;99.90;;;;;;5063022;28;20045;-71
2023/07/23 06:03:50;;;;;;;21.55;11.43;;;14.40;99.90;;;;;;5058090;28;20048;-71
2023/07/23 06:06:16;;;;;;;23.27;11.88;;;14.10;99.90;;;;;;5041951;28;20086;-72
2023/07/23 06:08:41;;;;;;;24.52;12.52;;;14.00;99.90;;;;;;5039918;28;20197;-73
2023/07/23 06:11:07;;;;;;;25.63;11.77;;;14.50;99.90;;;;;;5042666;28;20036;-72
2023/07/23 06:13:33;;;;;;;19.63;11.40;;;14.20;99.90;;;;;;5056882;28;20067;-71
2023/07/23 06:15:58;;;;;;;24.90;11.95;;;14.10;99.90;;;;;;5036462;28;20418;-72
2023/07/23 06:18:24;;;;;;;22.08;11.25;;;14.40;99.90;;;;;;5037378;28;20563;-71
2023/07/23 06:20:49;;;;;;;23.70;11.70;;;14.20;99.90;;;;;;5031012;28;20032;-75
2023/07/23 06:23:15;;;;;;;21.40;11.45;;;14.40;99.90;;;;;;5063470;28;20049;-71
2023/07/23 06:25:40;;;;;;;22.58;11.60;;;14.30;99.90;;;;;;5058395;28;20049;-72
2023/07/23 06:28:06;;;;;;;22.30;11.95;;;14.30;99.90;;;;;;5026559;28;20135;-71
2023/07/23 06:30:33;;;;;;;24.05;11.05;;;14.40;99.90;;;;;;5045574;28;20036;-73
2023/07/23 06:32:59;;;;;;;20.00;10.75;;;14.40;99.90;;;;;;5041038;28;20037;-73
2023/07/23 06:35:24;;;;;;;22.98;11.48;;;14.60;99.90;;;;;;5034691;28;20040;-70
2023/07/23 06:37:50;;;;;;;24.92;11.13;;;14.60;99.90;;;;;;5063042;28;20117;-73
2023/07/23 06:40:15;;;;;;;22.95;12.02;;;14.20;99.90;;;;;;5037605;28;20859;-71
2023/07/23 06:42:41;;;;;;;25.13;12.18;;;14.50;99.90;;;;;;5030520;28;20449;-70
2023/07/23 06:45:09;;;;;;;23.00;11.48;;;14.30;99.90;;;;;;5046081;28;20094;-71
2023/07/23 06:47:34;;;;;;;24.60;12.48;;;14.40;99.90;;;;;;5042969;28;20095;-73
2023/07/23 06:50:00;;;;;;;23.23;11.73;;;14.80;99.90;;;;;;5027162;28;20060;-72
2023/07/23 06:52:26;;;;;;;20.50;11.18;;;14.80;99.90;;;;;;5057701;28;20036;-72
2023/07/23 06:54:52;;;;;;;25.10;12.38;;;14.50;99.90;;;;;;5061625;28;20043;-72
2023/07/23 06:57:17;;;;;;;21.83;11.63;;;14.50;99.90;;;;;;5041532;28;20375;-75
2023/07/23 06:59:45;;;;;;;22.10;11.50;;;14.50;99.90;;;;;;5037765;28;20117;-73
2023/07/23 07:02:11;;;;;;;23.73;11.85;;;14.60;99.90;;;;;;5063854;28;20162;-72
2023/07/23 07:04:37;;;;;;;22.20;11.48;;;14.90;99.90;;;;;;5039666;28;20492;-73
2023/07/23 07:07:03;;;;;;;22.70;11.27;;;14.70;99.90;;;;;;5028150;28;20658;-72
2023/07/23 07:09:29;;;;;;;21.35;11.15;;;14.50;99.90;;;;;;5041539;28;20065;-73
2023/07/23 07:11:55;;;;;;;25.92;11.32;;;14.70;99.90;;;;;;5020416;28;20048;-71
2023/07/23 07:14:21;;;;;;;26.02;11.00;;;14.80;99.90;;;;;;5038680;28;20036;-73
2023/07/23 07:16:47;;;;;;;21.73;11.38;;;14.70;99.90;;;;;;5040304;28;20025;-72
2023/07/23 07:19:13;;;;;;;22.52;12.00;;;15.20;99.90;;;;;;5016262;28;20121;-71
2023/07/23 07:21:39;;;;;;;21.25;10.75;;;15.10;99.90;;;;;;5019804;28;20101;-73
2023/07/23 07:24:05;;;;;;;24.58;11.73;;;14.70;99.90;;;;;;5024805;28;20486;-72
2023/07/23 07:26:31;;;;;;;21.90;11.50;;;15.00;99.90;;;;;;5035724;28;20065;-72
2023/07/23 07:28:57;;;;;;;22.70;11.20;;;14.70;99.90;;;;;;5038685;28;20083;-73
2023/07/23 07:31:22;;;;;;;22.52;11.70;;;14.80;99.90;;;;;;5040643;28;20059;-74
2023/07/23 07:33:48;;;;;;;22.35;11.27;;;15.10;99.90;;;;;;5054747;28;20039;-73
2023/07/23 07:36:14;;;;;;;21.45;10.27;;;14.70;99.90;;;;;;5030921;28;20037;-73
2023/07/23 07:38:39;;;;;;;25.27;11.48;;;14.70;99.90;;;;;;5046440;28;20043;-73
2023/07/23 07:41:05;;;;;;;23.98;12.73;;;15.20;99.90;;;;;;5038229;28;20261;-72
2023/07/23 07:43:31;;;;;;;22.80;11.00;;;15.00;99.90;;;;;;5037868;28;20097;-73
2023/07/23 07:46:00;;;;;;;24.40;12.25;;;15.30;99.90;;;;;;5066644;28;20054;-74
2023/07/23 07:48:30;;;;;;;25.23;12.15;;;15.40;99.90;;;;;;5034638;28;20461;-72
2023/07/23 07:51:00;;;;;;;30.08;11.73;;;15.00;99.90;;;;;;5057583;28;20047;-72
2023/07/23 07:53:26;;;;;;;;;;;15.10;99.90;;;;;;5039980;28;20332;-70
2023/07/23 07:55:51;;;;;;;26.42;10.73;;;15.00;99.90;;;;;;5038841;28;19916;-73
2023/07/23 07:58:24;;;;;;;20.73;11.52;;;15.20;99.90;;;;;;5035541;28;20721;-71
2023/07/23 08:00:52;;;;;;;24.40;11.70;;;15.30;99.90;;;;;;5039356;28;20093;-69
2023/07/23 08:03:18;;;;;;;27.13;11.25;;;15.30;99.90;;;;;;5065776;28;20138;-72
2023/07/23 08:05:44;;;;;;;22.38;11.55;;;14.90;99.90;;;;;;5042311;28;20044;-70
2023/07/23 08:08:11;;;;;;;22.38;11.38;;;15.20;99.90;;;;;;5043920;28;20060;-72
2023/07/23 08:10:36;;;;;;;26.77;11.45;;;15.00;99.90;;;;;;5057652;28;20071;-73
2023/07/23 08:13:03;;;;;;;30.58;11.48;;;14.80;99.90;;;;;;5035907;28;20037;-74
2023/07/23 08:15:31;;;;;;;23.45;10.73;;;15.00;99.90;;;;;;5034174;28;20593;-73
2023/07/23 08:17:58;;;;;;;21.50;10.50;;;14.80;99.90;;;;;;5039178;28;20107;-73
2023/07/23 08:20:24;;;;;;;25.98;11.23;;;14.90;99.90;;;;;;5038082;28;20040;-73
2023/07/23 08:22:51;;;;;;;24.30;10.82;;;15.30;99.90;;;;;;5060342;28;20079;-72
2023/07/23 08:25:17;;;;;;;23.13;10.90;;;15.10;99.90;;;;;;5025997;28;20460;-76
2023/07/23 08:27:44;;;;;;;25.70;11.10;;;15.20;99.90;;;;;;5049821;28;20113;-74
2023/07/23 08:30:10;;;;;;;23.70;10.27;;;15.10;99.90;;;;;;5041819;28;20047;-74
2023/07/23 08:32:36;;;;;;;23.25;10.85;;;15.10;99.90;;;;;;5034222;28;20395;-73
2023/07/23 08:35:02;;;;;;;25.63;11.55;;;15.50;99.90;;;;;;5046099;28;20489;-75
2023/07/23 08:37:29;;;;;;;22.02;10.65;;;15.30;99.90;;;;;;5032641;28;20039;-73
2023/07/23 08:39:54;;;;;;;24.35;11.13;;;15.10;99.90;;;;;;5068899;28;20499;-75
2023/07/23 08:42:44;;;;;;;21.25;10.40;;;15.30;99.90;;;;;;5022168;28;20040;-75
2023/07/23 08:45:35;;;;;;;24.75;10.40;;;15.20;99.90;;;;;;5047643;28;20087;-74
2023/07/23 08:48:03;;;;;;;;;;;15.60;99.90;;;;;;5043111;28;20076;-72
2023/07/23 08:50:29;;;;;;;15.55;9.18;;;15.60;99.90;;;;;;5035589;28;19920;-73
2023/07/23 08:52:55;;;;;;;17.33;9.13;;;15.70;99.90;;;;;;5065987;28;20547;-70
2023/07/23 08:55:22;;;;;;;18.80;9.45;;;15.50;99.90;;;;;;5066611;28;20043;-73
2023/07/23 08:57:49;;;;;;;15.25;9.13;;;15.50;99.90;;;;;;5044678;28;20459;-74
2023/07/23 09:00:15;;;;;;;20.23;10.05;;;15.70;99.90;;;;;;5046846;28;20370;-73
2023/07/23 09:02:41;;;;;;;16.83;9.63;;;15.40;99.90;;;;;;5041889;28;20482;-73
2023/07/23 09:05:07;;;;;;;16.88;9.02;;;15.40;99.90;;;;;;5046739;28;20031;-72
2023/07/23 09:07:34;;;;;;;16.27;8.80;;;15.70;99.90;;;;;;5046537;28;20150;-74
2023/07/23 09:10:00;;;;;;;18.35;8.35;;;15.50;99.90;;;;;;5049942;28;20590;-72
2023/07/23 09:12:27;;;;;;;18.40;9.02;;;15.50;99.90;;;;;;5049762;28;20119;-72
2023/07/23 09:14:52;;;;;;;15.70;7.78;;;15.50;99.90;;;;;;5046832;28;20081;-77
2023/07/23 09:17:21;;;;;;;16.58;8.73;;;15.40;99.90;;;;;;5030912;28;20135;-74
2023/07/23 09:19:48;;;;;;;17.90;7.50;;;15.30;99.90;;;;;;5035050;28;20428;-73
2023/07/23 09:22:15;;;;;;;17.27;8.73;;;15.30;99.90;;;;;;5046897;28;20561;-72
2023/07/23 09:24:41;;;;;;;15.98;8.15;;;15.50;99.90;;;;;;5042740;28;20144;-74
2023/07/23 09:27:10;;;;;;;14.70;7.40;;;15.40;99.90;;;;;;5061188;28;20441;-72
2023/07/23 09:29:38;;;;;;;15.35;7.50;;;15.20;99.90;;;;;;5065759;28;20123;-71
2023/07/23 09:32:09;;;;;;;16.85;7.72;;;15.20;99.90;;;;;;5040206;28;20076;-68
2023/07/23 09:34:34;;;;;;;15.98;7.35;;;15.10;99.90;;;;;;5039269;28;20728;-70
2023/07/23 09:37:00;;;;;;;15.93;7.82;;;15.10;99.90;;;;;;5065820;28;20032;-72
2023/07/23 09:39:26;;;;;;;15.77;7.90;;;15.40;99.90;;;;;;5031528;28;20037;-71
2023/07/23 09:41:51;;;;;;;15.35;7.82;;;15.30;99.90;;;;;;5046294;28;20029;-71
2023/07/23 09:44:17;;;;;;;15.15;7.90;;;15.30;99.90;;;;;;5063362;28;20185;-70
2023/07/23 09:46:46;;;;;;;12.18;7.20;;;15.50;99.90;;;;;;5031897;28;20078;-73
2023/07/23 09:49:13;;;;;;;12.73;7.18;;;15.60;99.90;;;;;;5046618;28;20047;-74
2023/07/23 09:51:49;;;;;;;15.20;7.75;;;15.20;99.90;;;;;;5044280;28;20047;-73
2023/07/23 09:54:15;;;;;;;13.02;7.43;;;15.60;99.90;;;;;;5043578;28;20041;-71
2023/07/23 09:56:42;;;;;;;16.17;7.25;;;15.30;99.90;;;;;;5045906;28;20036;-71
2023/07/23 09:59:09;;;;;;;11.70;6.72;;;15.50;99.90;;;;;;5048559;28;20037;-70
2023/07/23 10:01:35;;;;;;;12.63;6.45;;;15.20;99.90;;;;;;5064487;28;20404;-72
2023/07/23 10:04:01;;;;;;;12.98;6.90;;;15.50;99.90;;;;;;5065374;28;20571;-71
2023/07/23 10:06:27;;;;;;;14.95;7.53;;;15.50;99.90;;;;;;5067854;28;20036;-73
2023/07/23 10:08:54;;;;;;;12.77;7.20;;;15.10;99.90;;;;;;5062296;28;20140;-70
2023/07/23 10:11:22;;;;;;;13.98;7.60;;;15.30;99.90;;;;;;5046979;28;20033;-70
2023/07/23 10:13:48;;;;;;;12.60;7.13;;;15.20;99.90;;;;;;5032417;28;20036;-70
2023/07/23 10:16:17;;;;;;;12.63;7.40;;;15.10;99.90;;;;;;5064515;28;20507;-71
2023/07/23 10:18:43;;;;;;;13.88;7.43;;;15.20;99.90;;;;;;5047787;28;20638;-71
2023/07/23 10:21:10;;;;;;;13.95;7.15;;;15.30;99.90;;;;;;5034696;28;20045;-70
2023/07/23 10:23:38;;;;;;;12.60;7.05;;;15.20;99.90;;;;;;5065771;28;20040;-70
2023/07/23 10:26:26;;;;;;;12.75;6.55;;;15.60;99.90;;;;;;5040212;28;20062;-69
2023/07/23 10:29:11;;;;;;;13.40;7.22;;;15.40;99.90;;;;;;5049635;28;20108;-70
2023/07/23 10:31:41;;;;;;;13.38;7.25;;;15.20;99.90;;;;;;5039269;28;20048;-69
2023/07/23 10:34:22;;;;;;;10.48;6.47;;;15.30;99.90;;;;;;5065724;28;20500;-69
2023/07/23 10:37:15;;;;;;;13.25;6.65;;;15.30;99.90;;;;;;5062564;28;20051;-69
2023/07/23 10:39:49;;;;;;;10.63;6.03;;;15.20;99.90;;;;;;5067021;28;20374;-70
2023/07/23 10:42:41;;;;;;;11.55;6.47;;;15.30;99.90;;;;;;5042855;28;20052;-68
2023/07/23 10:45:22;;;;;;;10.43;6.13;;;15.30;99.90;;;;;;5047618;28;20071;-67
2023/07/23 10:47:48;;;;;;;11.05;5.68;;;15.40;99.90;;;;;;5058481;28;20052;-68
2023/07/23 10:50:15;;;;;;;10.20;6.10;;;15.30;99.90;;;;;;5054874;28;20054;-68
2023/07/23 10:52:45;;;;;;;9.23;6.20;;;15.30;99.90;;;;;;5041538;28;20037;-68
2023/07/23 10:55:11;;;;;;;13.10;6.27;;;15.30;99.90;;;;;;5040409;28;20381;-68
2023/07/23 10:57:39;;;;;;;12.15;6.32;;;15.30;99.90;;;;;;5043879;28;20049;-68
2023/07/23 11:00:19;;;;;;;10.93;6.50;;;15.40;99.90;;;;;;5044444;28;20391;-67
2023/07/23 11:02:53;;;;;;;9.75;5.70;;;15.60;99.90;;;;;;5060566;28;20091;-68
2023/07/23 11:05:19;;;;;;;12.18;6.88;;;15.50;99.90;;;;;;5053345;28;20486;-67
2023/07/23 11:08:12;;;;;;;9.88;5.78;;;15.60;99.90;;;;;;5033284;28;20244;-67
2023/07/23 11:10:56;;;;;;;8.73;5.78;;;15.50;99.90;;;;;;5034847;28;20036;-67
2023/07/23 11:13:25;;;;;;;10.20;6.10;;;15.60;99.90;;;;;;5062953;28;20028;-68
2023/07/23 11:15:51;;;;;;;9.98;6.55;;;15.50;99.90;;;;;;5049365;28;20048;-66
2023/07/23 11:18:18;;;;;;;10.38;6.43;;;15.60;99.90;;;;;;5044864;28;20040;-67
2023/07/23 11:20:48;;;;;;;12.60;6.93;;;15.60;99.90;;;;;;5018453;28;20100;-67
2023/07/23 11:23:16;;;;;;;11.18;7.07;;;15.50;99.90;;;;;;5059283;28;20040;-67
2023/07/23 11:25:43;;;;;;;9.98;6.32;;;15.60;99.90;;;;;;5063742;28;20167;-67
2023/07/23 11:28:10;;;;;;;13.10;6.80;;;15.50;99.90;;;;;;5034184;28;20126;-67
2023/07/23 11:30:36;;;;;;;11.52;6.38;;;15.60;99.90;;;;;;5064317;28;20040;-67
2023/07/23 11:33:02;;;;;;;9.55;5.82;;;15.60;99.90;;;;;;5064008;28;20036;-66
2023/07/23 11:35:29;;;;;;;12.32;7.10;;;15.60;99.90;;;;;;5048083;28;20059;-67
2023/07/23 11:37:54;;;;;;;12.75;6.32;;;15.60;99.90;;;;;;5064594;28;20045;-67
2023/07/23 11:40:21;;;;;;;13.60;7.45;;;15.50;99.90;;;;;;5036827;28;20056;-66
2023/07/23 11:42:47;;;;;;;13.18;6.82;;;15.70;99.90;;;;;;5043306;28;20040;-68
2023/07/23 11:45:13;;;;;;;11.73;6.75;;;15.60;99.90;;;;;;5042922;28;20044;-67
2023/07/23 11:47:53;;;;;;;12.35;6.80;;;15.70;99.90;;;;;;5050208;28;20051;-67
2023/07/23 11:50:21;;;;;;;11.43;6.30;;;15.80;99.90;;;;;;5061434;28;20033;-67
2023/07/23 11:52:48;;;;;;;12.98;6.88;;;15.80;99.90;;;;;;5065613;28;20036;-68
2023/07/23 11:55:21;;;;;;;13.43;6.82;;;15.80;99.90;;;;;;5042027;28;20137;-67
2023/07/23 11:57:54;;;;;;;13.02;6.60;;;15.90;99.90;;;;;;5047124;28;20372;-67
2023/07/23 12:00:49;;;;;;;12.00;7.13;;;15.80;99.90;;;;;;5057219;28;20043;-70
2023/07/23 12:03:15;;;;;;;12.85;6.55;;;15.90;99.90;;;;;;5040493;28;20075;-67
2023/07/23 12:05:41;;;;;;;9.10;5.82;;;15.80;99.90;;;;;;5065927;28;20175;-67
2023/07/23 12:08:07;;;;;;;12.63;6.38;;;15.80;99.90;;;;;;5061849;28;20136;-65
2023/07/23 12:10:33;;;;;;;12.07;6.55;;;15.80;99.90;;;;;;5033521;28;20036;-66
2023/07/23 12:13:09;;;;;;;12.65;7.03;;;15.90;99.90;;;;;;5063429;28;20037;-69
2023/07/23 12:15:37;;;;;;;11.30;5.90;;;16.00;99.90;;;;;;5059024;28;20127;-67
2023/07/23 12:18:02;;;;;;;11.65;7.10;;;16.10;99.90;;;;;;5056711;28;20025;-67
2023/07/23 12:20:28;;;;;;;11.07;6.57;;;16.00;99.90;;;;;;5047699;28;20554;-66
2023/07/23 12:22:55;;;;;;;12.02;6.10;;;16.00;99.90;;;;;;5063310;28;20430;-71
2023/07/23 12:25:23;;;;;;;13.52;6.78;;;15.90;99.90;;;;;;5040609;28;20048;-67
2023/07/23 12:27:48;;;;;;;12.73;7.10;;;15.90;99.90;;;;;;5034299;28;20086;-67
2023/07/23 12:30:14;;;;;;;17.00;6.63;;;15.90;99.90;;;;;;5030651;28;20063;-67
2023/07/23 12:32:40;;;;;;;11.93;6.45;;;16.10;99.90;;;;;;5064365;28;20053;-68
2023/07/23 12:35:07;;;;;;;10.73;6.15;;;16.20;99.90;;;;;;5045604;28;20075;-67